sensor_id;sensor_type;location;lat;lon;timestamp;P1;durP1;ratioP1;P2;durP2;ratioP2
31310;SDS011;17937;51.508;7.534;2022-10-22T00:01:05;7.55;;;2.50;;
31310;SDS011;17937;51.508;7.534;2022-10-22T00:03:31;10.20;;;3.25;;
31310;SDS011;17937;51.508;7.534;2022-10-22T00:05:56;10.18;;;3.20;;
31310;SDS011;17937;51.508;7.534;2022-10-22T00:08:22;3.22;;;2.38;;
31310;SDS011;17937;51.508;7.534;2022-10-22T00:10:47;9.88;;;3.25;;
31310;SDS011;17937;51.508;7.534;2022-10-22T00:13:13;6.45;;;2.75;;
31310;SDS011;17937;51.508;7.534;2022-10-22T00:15:39;13.32;;;3.13;;
31310;SDS011;17937;51.508;7.534;2022-10-22T00:18:04;9.68;;;3.08;;
31310;SDS011;17937;51.508;7.534;2022-10-22T00:20:30;10.68;;;2.95;;
31310;SDS011;17937;51.508;7.534;2022-10-22T00:22:55;12.40;;;2.67;;
31310;SDS011;17937;51.508;7.534;2022-10-22T00:25:21;10.70;;;2.80;;
31310;SDS011;17937;51.508;7.534;2022-10-22T00:27:47;9.00;;;3.17;;
31310;SDS011;17937;51.508;7.534;2022-10-22T00:30:12;8.13;;;2.80;;
31310;SDS011;17937;51.508;7.534;2022-10-22T00:32:38;13.82;;;3.10;;
31310;SDS011;17937;51.508;7.534;2022-10-22T00:35:03;6.22;;;2.70;;
31310;SDS011;17937;51.508;7.534;2022-10-22T00:37:29;7.18;;;3.40;;
31310;SDS011;17937;51.508;7.534;2022-10-22T00:39:55;7.35;;;3.13;;
31310;SDS011;17937;51.508;7.534;2022-10-22T00:42:22;9.52;;;3.25;;
31310;SDS011;17937;51.508;7.534;2022-10-22T00:47:27;12.30;;;3.20;;
31310;SDS011;17937;51.508;7.534;2022-10-22T00:53:03;10.75;;;3.35;;
31310;SDS011;17937;51.508;7.534;2022-10-22T00:55:32;6.97;;;2.95;;
31310;SDS011;17937;51.508;7.534;2022-10-22T00:57:58;7.90;;;3.08;;
31310;SDS011;17937;51.508;7.534;2022-10-22T01:00:25;9.60;;;3.40;;
31310;SDS011;17937;51.508;7.534;2022-10-22T01:02:51;8.32;;;3.22;;
31310;SDS011;17937;51.508;7.534;2022-10-22T01:05:18;6.82;;;3.47;;
31310;SDS011;17937;51.508;7.534;2022-10-22T01:07:45;9.63;;;3.83;;
31310;SDS011;17937;51.508;7.534;2022-10-22T01:10:16;9.57;;;3.25;;
31310;SDS011;17937;51.508;7.534;2022-10-22T01:13:04;7.78;;;3.20;;
31310;SDS011;17937;51.508;7.534;2022-10-22T01:18:12;10.63;;;3.25;;
31310;SDS011;17937;51.508;7.534;2022-10-22T01:31:28;10.35;;;3.38;;
31310;SDS011;17937;51.508;7.534;2022-10-22T01:33:57;13.68;;;3.88;;
31310;SDS011;17937;51.508;7.534;2022-10-22T01:36:24;11.10;;;3.83;;
31310;SDS011;17937;51.508;7.534;2022-10-22T01:38:51;7.82;;;3.45;;
31310;SDS011;17937;51.508;7.534;2022-10-22T01:41:18;6.57;;;3.40;;
31310;SDS011;17937;51.508;7.534;2022-10-22T01:43:43;9.80;;;3.70;;
31310;SDS011;17937;51.508;7.534;2022-10-22T01:46:09;11.75;;;3.30;;
31310;SDS011;17937;51.508;7.534;2022-10-22T01:54:10;10.13;;;3.70;;
31310;SDS011;17937;51.508;7.534;2022-10-22T01:57:06;10.23;;;3.42;;
31310;SDS011;17937;51.508;7.534;2022-10-22T01:59:49;9.45;;;3.78;;
31310;SDS011;17937;51.508;7.534;2022-10-22T02:05:20;15.88;;;3.95;;
31310;SDS011;17937;51.508;7.534;2022-10-22T02:08:09;11.80;;;3.90;;
31310;SDS011;17937;51.508;7.534;2022-10-22T02:10:38;11.10;;;3.88;;
31310;SDS011;17937;51.508;7.534;2022-10-22T02:13:07;13.70;;;3.83;;
31310;SDS011;17937;51.508;7.534;2022-10-22T02:15:36;13.43;;;4.28;;
31310;SDS011;17937;51.508;7.534;2022-10-22T02:18:04;9.90;;;3.95;;
31310;SDS011;17937;51.508;7.534;2022-10-22T02:20:32;10.57;;;4.00;;
31310;SDS011;17937;51.508;7.534;2022-10-22T02:23:00;12.60;;;4.22;;
31310;SDS011;17937;51.508;7.534;2022-10-22T02:25:31;13.05;;;4.25;;
31310;SDS011;17937;51.508;7.534;2022-10-22T02:28:05;17.65;;;3.72;;
31310;SDS011;17937;51.508;7.534;2022-10-22T02:30:32;9.18;;;4.20;;
31310;SDS011;17937;51.508;7.534;2022-10-22T02:35:47;8.88;;;3.80;;
31310;SDS011;17937;51.508;7.534;2022-10-22T02:38:15;16.00;;;4.60;;
31310;SDS011;17937;51.508;7.534;2022-10-22T02:40:41;16.20;;;4.65;;
31310;SDS011;17937;51.508;7.534;2022-10-22T02:43:07;10.02;;;4.20;;
31310;SDS011;17937;51.508;7.534;2022-10-22T02:45:33;7.00;;;3.97;;
31310;SDS011;17937;51.508;7.534;2022-10-22T02:47:59;8.40;;;4.25;;
31310;SDS011;17937;51.508;7.534;2022-10-22T02:50:24;18.38;;;4.50;;
31310;SDS011;17937;51.508;7.534;2022-10-22T02:52:50;14.27;;;4.18;;
31310;SDS011;17937;51.508;7.534;2022-10-22T02:55:16;11.30;;;4.22;;
31310;SDS011;17937;51.508;7.534;2022-10-22T02:57:41;15.15;;;4.15;;
31310;SDS011;17937;51.508;7.534;2022-10-22T03:00:07;13.68;;;4.35;;
31310;SDS011;17937;51.508;7.534;2022-10-22T03:02:35;14.35;;;4.35;;
31310;SDS011;17937;51.508;7.534;2022-10-22T03:05:00;11.48;;;5.15;;
31310;SDS011;17937;51.508;7.534;2022-10-22T03:07:26;10.05;;;4.13;;
31310;SDS011;17937;51.508;7.534;2022-10-22T03:09:51;17.10;;;4.93;;
31310;SDS011;17937;51.508;7.534;2022-10-22T03:12:17;10.52;;;4.13;;
31310;SDS011;17937;51.508;7.534;2022-10-22T03:14:42;14.00;;;4.45;;
31310;SDS011;17937;51.508;7.534;2022-10-22T03:17:08;14.75;;;5.20;;
31310;SDS011;17937;51.508;7.534;2022-10-22T03:19:34;8.68;;;4.30;;
31310;SDS011;17937;51.508;7.534;2022-10-22T03:22:04;12.23;;;4.80;;
31310;SDS011;17937;51.508;7.534;2022-10-22T03:24:37;14.63;;;4.97;;
31310;SDS011;17937;51.508;7.534;2022-10-22T03:29:30;8.48;;;4.45;;
31310;SDS011;17937;51.508;7.534;2022-10-22T03:32:00;7.07;;;3.85;;
31310;SDS011;17937;51.508;7.534;2022-10-22T03:34:25;14.95;;;4.63;;
31310;SDS011;17937;51.508;7.534;2022-10-22T03:36:51;11.13;;;4.95;;
31310;SDS011;17937;51.508;7.534;2022-10-22T03:39:17;10.20;;;4.43;;
31310;SDS011;17937;51.508;7.534;2022-10-22T03:41:45;13.70;;;4.80;;
31310;SDS011;17937;51.508;7.534;2022-10-22T03:44:13;11.48;;;4.75;;
31310;SDS011;17937;51.508;7.534;2022-10-22T03:46:40;17.33;;;4.85;;
31310;SDS011;17937;51.508;7.534;2022-10-22T03:49:06;13.85;;;4.70;;
31310;SDS011;17937;51.508;7.534;2022-10-22T03:51:31;9.93;;;4.80;;
31310;SDS011;17937;51.508;7.534;2022-10-22T03:53:58;12.10;;;4.80;;
31310;SDS011;17937;51.508;7.534;2022-10-22T03:56:23;13.95;;;4.90;;
31310;SDS011;17937;51.508;7.534;2022-10-22T03:58:49;19.80;;;5.22;;
31310;SDS011;17937;51.508;7.534;2022-10-22T04:01:15;11.23;;;5.22;;
31310;SDS011;17937;51.508;7.534;2022-10-22T04:03:40;13.52;;;5.18;;
31310;SDS011;17937;51.508;7.534;2022-10-22T04:06:07;10.43;;;5.38;;
31310;SDS011;17937;51.508;7.534;2022-10-22T04:08:40;12.93;;;4.57;;
31310;SDS011;17937;51.508;7.534;2022-10-22T04:11:08;11.68;;;4.72;;
31310;SDS011;17937;51.508;7.534;2022-10-22T04:13:35;16.75;;;5.30;;
31310;SDS011;17937;51.508;7.534;2022-10-22T04:16:14;10.27;;;4.72;;
31310;SDS011;17937;51.508;7.534;2022-10-22T04:18:42;9.57;;;5.20;;
31310;SDS011;17937;51.508;7.534;2022-10-22T04:21:09;9.05;;;4.50;;
31310;SDS011;17937;51.508;7.534;2022-10-22T04:23:36;13.77;;;4.80;;
31310;SDS011;17937;51.508;7.534;2022-10-22T04:26:05;17.98;;;5.28;;
31310;SDS011;17937;51.508;7.534;2022-10-22T04:28:32;23.08;;;5.70;;
31310;SDS011;17937;51.508;7.534;2022-10-22T04:30:58;14.93;;;5.55;;
31310;SDS011;17937;51.508;7.534;2022-10-22T04:33:23;18.73;;;5.13;;
31310;SDS011;17937;51.508;7.534;2022-10-22T04:35:49;16.00;;;5.72;;
31310;SDS011;17937;51.508;7.534;2022-10-22T04:38:15;14.73;;;5.85;;
31310;SDS011;17937;51.508;7.534;2022-10-22T04:40:40;10.93;;;5.28;;
31310;SDS011;17937;51.508;7.534;2022-10-22T04:43:06;13.55;;;6.45;;
31310;SDS011;17937;51.508;7.534;2022-10-22T04:45:32;13.25;;;6.25;;
31310;SDS011;17937;51.508;7.534;2022-10-22T04:47:58;12.43;;;6.10;;
31310;SDS011;17937;51.508;7.534;2022-10-22T04:50:24;13.88;;;6.40;;
31310;SDS011;17937;51.508;7.534;2022-10-22T04:52:50;20.23;;;6.95;;
31310;SDS011;17937;51.508;7.534;2022-10-22T04:55:15;11.63;;;6.20;;
31310;SDS011;17937;51.508;7.534;2022-10-22T04:57:41;14.88;;;6.57;;
31310;SDS011;17937;51.508;7.534;2022-10-22T05:00:06;17.20;;;7.22;;
31310;SDS011;17937;51.508;7.534;2022-10-22T05:02:32;18.90;;;6.72;;
31310;SDS011;17937;51.508;7.534;2022-10-22T05:04:58;13.80;;;6.47;;
31310;SDS011;17937;51.508;7.534;2022-10-22T05:07:24;11.77;;;6.95;;
31310;SDS011;17937;51.508;7.534;2022-10-22T05:09:49;14.27;;;7.00;;
31310;SDS011;17937;51.508;7.534;2022-10-22T05:12:15;24.05;;;6.95;;
31310;SDS011;17937;51.508;7.534;2022-10-22T05:14:41;21.15;;;7.13;;
31310;SDS011;17937;51.508;7.534;2022-10-22T05:17:06;17.02;;;7.85;;
31310;SDS011;17937;51.508;7.534;2022-10-22T05:19:32;12.50;;;7.07;;
31310;SDS011;17937;51.508;7.534;2022-10-22T05:21:58;11.73;;;6.90;;
31310;SDS011;17937;51.508;7.534;2022-10-22T05:24:26;14.93;;;7.45;;
31310;SDS011;17937;51.508;7.534;2022-10-22T05:26:53;19.73;;;7.55;;
31310;SDS011;17937;51.508;7.534;2022-10-22T05:29:20;11.48;;;7.63;;
31310;SDS011;17937;51.508;7.534;2022-10-22T05:31:47;19.70;;;8.07;;
31310;SDS011;17937;51.508;7.534;2022-10-22T05:34:13;10.27;;;7.53;;
31310;SDS011;17937;51.508;7.534;2022-10-22T05:36:39;25.15;;;8.85;;
31310;SDS011;17937;51.508;7.534;2022-10-22T05:39:05;19.58;;;7.95;;
31310;SDS011;17937;51.508;7.534;2022-10-22T05:41:31;16.38;;;8.05;;
31310;SDS011;17937;51.508;7.534;2022-10-22T05:43:58;16.80;;;8.18;;
31310;SDS011;17937;51.508;7.534;2022-10-22T05:46:25;18.13;;;8.45;;
31310;SDS011;17937;51.508;7.534;2022-10-22T05:48:53;12.95;;;7.70;;
31310;SDS011;17937;51.508;7.534;2022-10-22T05:51:21;21.63;;;8.48;;
31310;SDS011;17937;51.508;7.534;2022-10-22T05:53:51;15.55;;;7.68;;
31310;SDS011;17937;51.508;7.534;2022-10-22T05:56:19;15.10;;;8.23;;
31310;SDS011;17937;51.508;7.534;2022-10-22T05:58:45;18.45;;;8.63;;
31310;SDS011;17937;51.508;7.534;2022-10-22T06:01:12;16.00;;;8.18;;
31310;SDS011;17937;51.508;7.534;2022-10-22T06:03:43;22.02;;;8.48;;
31310;SDS011;17937;51.508;7.534;2022-10-22T06:06:18;18.35;;;8.32;;
31310;SDS011;17937;51.508;7.534;2022-10-22T06:09:05;12.45;;;7.40;;
31310;SDS011;17937;51.508;7.534;2022-10-22T06:11:37;19.35;;;8.90;;
31310;SDS011;17937;51.508;7.534;2022-10-22T06:14:03;18.45;;;8.75;;
31310;SDS011;17937;51.508;7.534;2022-10-22T06:16:29;14.70;;;7.93;;
31310;SDS011;17937;51.508;7.534;2022-10-22T06:18:57;17.10;;;8.82;;
31310;SDS011;17937;51.508;7.534;2022-10-22T06:21:24;16.17;;;8.63;;
31310;SDS011;17937;51.508;7.534;2022-10-22T06:23:49;16.83;;;8.45;;
31310;SDS011;17937;51.508;7.534;2022-10-22T06:26:15;15.35;;;8.25;;
31310;SDS011;17937;51.508;7.534;2022-10-22T06:28:41;16.98;;;7.80;;
31310;SDS011;17937;51.508;7.534;2022-10-22T06:31:08;19.08;;;8.75;;
31310;SDS011;17937;51.508;7.534;2022-10-22T06:33:34;17.00;;;8.13;;
31310;SDS011;17937;51.508;7.534;2022-10-22T06:36:06;20.00;;;9.03;;
31310;SDS011;17937;51.508;7.534;2022-10-22T06:38:40;19.10;;;8.98;;
31310;SDS011;17937;51.508;7.534;2022-10-22T06:41:11;16.77;;;8.55;;
31310;SDS011;17937;51.508;7.534;2022-10-22T06:43:38;19.60;;;8.90;;
31310;SDS011;17937;51.508;7.534;2022-10-22T06:46:05;25.75;;;9.88;;
31310;SDS011;17937;51.508;7.534;2022-10-22T06:48:36;17.52;;;9.07;;
31310;SDS011;17937;51.508;7.534;2022-10-22T06:51:05;19.40;;;8.30;;
31310;SDS011;17937;51.508;7.534;2022-10-22T06:53:32;25.73;;;9.00;;
31310;SDS011;17937;51.508;7.534;2022-10-22T06:55:58;24.27;;;8.95;;
31310;SDS011;17937;51.508;7.534;2022-10-22T06:58:28;16.35;;;8.48;;
31310;SDS011;17937;51.508;7.534;2022-10-22T07:01:00;14.80;;;7.85;;
31310;SDS011;17937;51.508;7.534;2022-10-22T07:03:30;12.30;;;6.60;;
31310;SDS011;17937;51.508;7.534;2022-10-22T07:06:00;12.75;;;6.00;;
31310;SDS011;17937;51.508;7.534;2022-10-22T07:08:26;10.68;;;5.95;;
31310;SDS011;17937;51.508;7.534;2022-10-22T07:10:54;17.25;;;6.28;;
31310;SDS011;17937;51.508;7.534;2022-10-22T07:13:19;14.32;;;6.10;;
31310;SDS011;17937;51.508;7.534;2022-10-22T07:15:50;18.95;;;6.05;;
31310;SDS011;17937;51.508;7.534;2022-10-22T07:18:17;10.07;;;6.03;;
31310;SDS011;17937;51.508;7.534;2022-10-22T07:20:42;11.18;;;5.75;;
31310;SDS011;17937;51.508;7.534;2022-10-22T07:23:08;19.45;;;5.10;;
31310;SDS011;17937;51.508;7.534;2022-10-22T07:25:33;9.15;;;4.90;;
31310;SDS011;17937;51.508;7.534;2022-10-22T07:27:59;11.32;;;4.35;;
31310;SDS011;17937;51.508;7.534;2022-10-22T07:30:24;11.23;;;4.30;;
31310;SDS011;17937;51.508;7.534;2022-10-22T07:32:50;12.82;;;4.32;;
31310;SDS011;17937;51.508;7.534;2022-10-22T07:35:15;8.77;;;4.00;;
31310;SDS011;17937;51.508;7.534;2022-10-22T07:37:41;13.45;;;3.88;;
31310;SDS011;17937;51.508;7.534;2022-10-22T07:40:07;9.40;;;3.50;;
31310;SDS011;17937;51.508;7.534;2022-10-22T07:42:33;7.70;;;3.00;;
31310;SDS011;17937;51.508;7.534;2022-10-22T07:44:58;10.00;;;3.38;;
31310;SDS011;17937;51.508;7.534;2022-10-22T07:47:24;5.82;;;3.25;;
31310;SDS011;17937;51.508;7.534;2022-10-22T07:49:49;12.10;;;3.60;;
31310;SDS011;17937;51.508;7.534;2022-10-22T07:52:15;7.88;;;3.20;;
31310;SDS011;17937;51.508;7.534;2022-10-22T07:54:40;7.32;;;3.25;;
31310;SDS011;17937;51.508;7.534;2022-10-22T07:57:06;9.15;;;2.97;;
31310;SDS011;17937;51.508;7.534;2022-10-22T07:59:31;10.98;;;3.47;;
31310;SDS011;17937;51.508;7.534;2022-10-22T08:01:57;7.47;;;3.10;;
31310;SDS011;17937;51.508;7.534;2022-10-22T08:04:23;8.98;;;3.20;;
31310;SDS011;17937;51.508;7.534;2022-10-22T08:06:48;11.05;;;2.95;;
31310;SDS011;17937;51.508;7.534;2022-10-22T08:09:14;8.48;;;2.72;;
31310;SDS011;17937;51.508;7.534;2022-10-22T08:11:39;9.15;;;2.85;;
31310;SDS011;17937;51.508;7.534;2022-10-22T08:14:05;13.38;;;3.13;;
31310;SDS011;17937;51.508;7.534;2022-10-22T08:16:30;7.90;;;2.80;;
31310;SDS011;17937;51.508;7.534;2022-10-22T08:18:56;7.97;;;2.58;;
31310;SDS011;17937;51.508;7.534;2022-10-22T08:21:22;9.50;;;2.75;;
31310;SDS011;17937;51.508;7.534;2022-10-22T08:23:47;6.85;;;2.67;;
31310;SDS011;17937;51.508;7.534;2022-10-22T08:26:13;10.13;;;3.10;;
31310;SDS011;17937;51.508;7.534;2022-10-22T08:28:38;13.50;;;2.70;;
31310;SDS011;17937;51.508;7.534;2022-10-22T08:31:05;8.88;;;2.63;;
31310;SDS011;17937;51.508;7.534;2022-10-22T08:33:32;7.93;;;2.60;;
31310;SDS011;17937;51.508;7.534;2022-10-22T08:35:58;10.93;;;2.42;;
31310;SDS011;17937;51.508;7.534;2022-10-22T08:38:23;7.20;;;2.25;;
31310;SDS011;17937;51.508;7.534;2022-10-22T08:40:53;7.18;;;2.17;;
31310;SDS011;17937;51.508;7.534;2022-10-22T08:43:38;14.35;;;2.60;;
31310;SDS011;17937;51.508;7.534;2022-10-22T08:46:09;11.00;;;2.58;;
31310;SDS011;17937;51.508;7.534;2022-10-22T08:51:18;8.63;;;2.03;;
31310;SDS011;17937;51.508;7.534;2022-10-22T09:07:35;13.38;;;3.00;;
31310;SDS011;17937;51.508;7.534;2022-10-22T09:10:03;12.05;;;2.70;;
31310;SDS011;17937;51.508;7.534;2022-10-22T09:12:29;11.25;;;2.95;;
31310;SDS011;17937;51.508;7.534;2022-10-22T09:14:55;13.35;;;4.20;;
31310;SDS011;17937;51.508;7.534;2022-10-22T09:23:19;11.27;;;2.90;;
31310;SDS011;17937;51.508;7.534;2022-10-22T09:26:07;12.23;;;2.33;;
31310;SDS011;17937;51.508;7.534;2022-10-22T09:28:38;13.73;;;2.70;;
31310;SDS011;17937;51.508;7.534;2022-10-22T09:31:10;9.98;;;2.80;;
31310;SDS011;17937;51.508;7.534;2022-10-22T09:33:37;6.75;;;2.30;;
31310;SDS011;17937;51.508;7.534;2022-10-22T09:36:04;10.65;;;2.80;;
31310;SDS011;17937;51.508;7.534;2022-10-22T09:38:38;7.38;;;2.78;;
31310;SDS011;17937;51.508;7.534;2022-10-22T09:41:08;12.75;;;3.28;;
31310;SDS011;17937;51.508;7.534;2022-10-22T09:43:34;11.27;;;3.55;;
31310;SDS011;17937;51.508;7.534;2022-10-22T09:46:04;11.23;;;3.53;;
31310;SDS011;17937;51.508;7.534;2022-10-22T09:48:32;14.13;;;3.13;;
31310;SDS011;17937;51.508;7.534;2022-10-22T09:53:58;7.72;;;2.95;;
31310;SDS011;17937;51.508;7.534;2022-10-22T09:56:35;12.38;;;3.13;;
31310;SDS011;17937;51.508;7.534;2022-10-22T09:59:08;7.30;;;3.03;;
31310;SDS011;17937;51.508;7.534;2022-10-22T10:01:42;7.35;;;2.90;;
31310;SDS011;17937;51.508;7.534;2022-10-22T10:04:12;9.10;;;2.92;;
31310;SDS011;17937;51.508;7.534;2022-10-22T10:06:39;11.80;;;3.17;;
31310;SDS011;17937;51.508;7.534;2022-10-22T10:09:12;12.52;;;3.40;;
31310;SDS011;17937;51.508;7.534;2022-10-22T10:11:48;13.05;;;2.97;;
31310;SDS011;17937;51.508;7.534;2022-10-22T10:16:56;12.88;;;3.13;;
31310;SDS011;17937;51.508;7.534;2022-10-22T10:22:29;12.68;;;2.47;;
31310;SDS011;17937;51.508;7.534;2022-10-22T10:27:52;10.10;;;2.67;;
31310;SDS011;17937;51.508;7.534;2022-10-22T10:30:36;14.32;;;2.75;;
31310;SDS011;17937;51.508;7.534;2022-10-22T10:33:20;13.18;;;2.67;;
31310;SDS011;17937;51.508;7.534;2022-10-22T10:36:08;11.27;;;3.40;;
31310;SDS011;17937;51.508;7.534;2022-10-22T10:38:50;9.20;;;2.50;;
31310;SDS011;17937;51.508;7.534;2022-10-22T10:50:13;9.90;;;2.65;;
31310;SDS011;17937;51.508;7.534;2022-10-22T10:52:57;9.23;;;2.58;;
31310;SDS011;17937;51.508;7.534;2022-10-22T10:58:48;6.85;;;2.40;;
31310;SDS011;17937;51.508;7.534;2022-10-22T11:06:52;10.07;;;2.55;;
31310;SDS011;17937;51.508;7.534;2022-10-22T11:11:58;8.32;;;1.65;;
31310;SDS011;17937;51.508;7.534;2022-10-22T11:14:29;8.70;;;1.75;;
31310;SDS011;17937;51.508;7.534;2022-10-22T11:17:15;7.82;;;2.10;;
31310;SDS011;17937;51.508;7.534;2022-10-22T11:22:37;8.50;;;1.90;;
31310;SDS011;17937;51.508;7.534;2022-10-22T11:28:54;3.65;;;1.42;;
31310;SDS011;17937;51.508;7.534;2022-10-22T11:31:00;11.95;;;1.75;;
31310;SDS011;17937;51.508;7.534;2022-10-22T11:33:35;7.13;;;1.77;;
31310;SDS011;17937;51.508;7.534;2022-10-22T11:36:21;8.23;;;1.65;;
31310;SDS011;17937;51.508;7.534;2022-10-22T11:38:50;3.95;;;1.33;;
31310;SDS011;17937;51.508;7.534;2022-10-22T11:41:16;6.25;;;1.50;;
31310;SDS011;17937;51.508;7.534;2022-10-22T11:48:44;6.20;;;1.30;;
31310;SDS011;17937;51.508;7.534;2022-10-22T11:51:45;8.25;;;1.65;;
31310;SDS011;17937;51.508;7.534;2022-10-22T12:07:52;10.80;;;1.63;;
31310;SDS011;17937;51.508;7.534;2022-10-22T12:10:25;6.10;;;1.60;;
31310;SDS011;17937;51.508;7.534;2022-10-22T12:12:56;4.50;;;1.50;;
31310;SDS011;17937;51.508;7.534;2022-10-22T12:15:26;7.35;;;1.80;;
31310;SDS011;17937;51.508;7.534;2022-10-22T12:17:59;6.75;;;1.70;;
31310;SDS011;17937;51.508;7.534;2022-10-22T12:20:29;9.13;;;1.58;;
31310;SDS011;17937;51.508;7.534;2022-10-22T12:22:56;9.32;;;1.63;;
31310;SDS011;17937;51.508;7.534;2022-10-22T12:25:24;4.57;;;1.42;;
31310;SDS011;17937;51.508;7.534;2022-10-22T12:27:55;7.63;;;1.65;;
31310;SDS011;17937;51.508;7.534;2022-10-22T12:30:32;8.02;;;1.73;;
31310;SDS011;17937;51.508;7.534;2022-10-22T12:33:02;5.78;;;1.05;;
31310;SDS011;17937;51.508;7.534;2022-10-22T12:35:31;6.57;;;1.10;;
31310;SDS011;17937;51.508;7.534;2022-10-22T12:38:12;6.75;;;1.63;;
31310;SDS011;17937;51.508;7.534;2022-10-22T12:40:39;8.52;;;1.55;;
31310;SDS011;17937;51.508;7.534;2022-10-22T12:43:16;9.57;;;1.60;;
31310;SDS011;17937;51.508;7.534;2022-10-22T12:45:43;7.80;;;1.23;;
31310;SDS011;17937;51.508;7.534;2022-10-22T12:48:21;4.68;;;1.00;;
31310;SDS011;17937;51.508;7.534;2022-10-22T12:50:55;5.57;;;1.15;;
31310;SDS011;17937;51.508;7.534;2022-10-22T12:53:30;3.42;;;1.10;;
31310;SDS011;17937;51.508;7.534;2022-10-22T12:56:00;7.97;;;1.60;;
31310;SDS011;17937;51.508;7.534;2022-10-22T12:58:30;4.20;;;1.38;;
31310;SDS011;17937;51.508;7.534;2022-10-22T13:01:02;4.13;;;1.27;;
31310;SDS011;17937;51.508;7.534;2022-10-22T13:03:32;6.53;;;1.23;;
31310;SDS011;17937;51.508;7.534;2022-10-22T13:06:11;7.13;;;1.45;;
31310;SDS011;17937;51.508;7.534;2022-10-22T13:08:38;3.55;;;1.10;;
31310;SDS011;17937;51.508;7.534;2022-10-22T13:11:08;16.88;;;1.70;;
31310;SDS011;17937;51.508;7.534;2022-10-22T13:16:20;9.55;;;1.55;;
31310;SDS011;17937;51.508;7.534;2022-10-22T13:18:48;7.22;;;1.52;;
31310;SDS011;17937;51.508;7.534;2022-10-22T13:21:26;5.05;;;1.25;;
31310;SDS011;17937;51.508;7.534;2022-10-22T13:24:26;12.23;;;1.90;;
31310;SDS011;17937;51.508;7.534;2022-10-22T13:26:48;3.13;;;1.15;;
31310;SDS011;17937;51.508;7.534;2022-10-22T13:29:17;6.32;;;1.20;;
31310;SDS011;17937;51.508;7.534;2022-10-22T13:31:48;6.50;;;1.58;;
31310;SDS011;17937;51.508;7.534;2022-10-22T13:34:18;6.22;;;1.27;;
31310;SDS011;17937;51.508;7.534;2022-10-22T13:36:45;4.93;;;1.10;;
31310;SDS011;17937;51.508;7.534;2022-10-22T13:39:32;4.50;;;1.23;;
31310;SDS011;17937;51.508;7.534;2022-10-22T13:41:59;6.38;;;1.33;;
31310;SDS011;17937;51.508;7.534;2022-10-22T13:44:24;8.48;;;1.67;;
31310;SDS011;17937;51.508;7.534;2022-10-22T13:46:50;9.73;;;1.77;;
31310;SDS011;17937;51.508;7.534;2022-10-22T13:49:16;7.53;;;1.30;;
31310;SDS011;17937;51.508;7.534;2022-10-22T13:51:44;7.47;;;1.88;;
31310;SDS011;17937;51.508;7.534;2022-10-22T13:54:14;9.07;;;1.33;;
31310;SDS011;17937;51.508;7.534;2022-10-22T13:56:43;5.32;;;1.02;;
31310;SDS011;17937;51.508;7.534;2022-10-22T13:59:09;5.95;;;1.30;;
31310;SDS011;17937;51.508;7.534;2022-10-22T14:01:35;5.70;;;1.20;;
31310;SDS011;17937;51.508;7.534;2022-10-22T14:04:02;4.95;;;1.10;;
31310;SDS011;17937;51.508;7.534;2022-10-22T14:06:29;5.82;;;1.02;;
31310;SDS011;17937;51.508;7.534;2022-10-22T14:08:57;7.80;;;1.20;;
31310;SDS011;17937;51.508;7.534;2022-10-22T14:11:24;4.82;;;1.20;;
31310;SDS011;17937;51.508;7.534;2022-10-22T14:13:55;6.85;;;1.15;;
31310;SDS011;17937;51.508;7.534;2022-10-22T14:16:22;10.85;;;1.40;;
31310;SDS011;17937;51.508;7.534;2022-10-22T14:18:49;5.97;;;1.40;;
31310;SDS011;17937;51.508;7.534;2022-10-22T14:21:15;5.03;;;1.23;;
31310;SDS011;17937;51.508;7.534;2022-10-22T14:23:42;7.60;;;1.17;;
31310;SDS011;17937;51.508;7.534;2022-10-22T14:26:11;4.10;;;1.20;;
31310;SDS011;17937;51.508;7.534;2022-10-22T14:28:45;4.30;;;1.33;;
31310;SDS011;17937;51.508;7.534;2022-10-22T14:31:11;4.75;;;1.15;;
31310;SDS011;17937;51.508;7.534;2022-10-22T14:33:36;7.20;;;1.25;;
31310;SDS011;17937;51.508;7.534;2022-10-22T14:36:03;3.35;;;0.93;;
31310;SDS011;17937;51.508;7.534;2022-10-22T14:38:29;3.13;;;1.10;;
31310;SDS011;17937;51.508;7.534;2022-10-22T14:40:55;8.38;;;1.65;;
31310;SDS011;17937;51.508;7.534;2022-10-22T14:43:22;7.95;;;1.17;;
31310;SDS011;17937;51.508;7.534;2022-10-22T14:45:50;6.60;;;1.00;;
31310;SDS011;17937;51.508;7.534;2022-10-22T14:48:16;5.43;;;1.17;;
31310;SDS011;17937;51.508;7.534;2022-10-22T14:50:42;5.03;;;1.00;;
31310;SDS011;17937;51.508;7.534;2022-10-22T14:53:08;6.55;;;1.15;;
31310;SDS011;17937;51.508;7.534;2022-10-22T14:55:34;4.70;;;1.23;;
31310;SDS011;17937;51.508;7.534;2022-10-22T14:58:00;4.30;;;1.13;;
31310;SDS011;17937;51.508;7.534;2022-10-22T15:00:25;5.38;;;1.33;;
31310;SDS011;17937;51.508;7.534;2022-10-22T15:02:51;5.93;;;1.40;;
31310;SDS011;17937;51.508;7.534;2022-10-22T15:05:19;4.82;;;1.13;;
31310;SDS011;17937;51.508;7.534;2022-10-22T15:07:45;6.22;;;1.80;;
31310;SDS011;17937;51.508;7.534;2022-10-22T15:10:10;5.43;;;1.30;;
31310;SDS011;17937;51.508;7.534;2022-10-22T15:12:36;3.30;;;1.05;;
31310;SDS011;17937;51.508;7.534;2022-10-22T15:15:02;8.05;;;1.52;;
31310;SDS011;17937;51.508;7.534;2022-10-22T15:17:28;7.35;;;1.30;;
31310;SDS011;17937;51.508;7.534;2022-10-22T15:19:54;5.40;;;1.52;;
31310;SDS011;17937;51.508;7.534;2022-10-22T15:22:20;8.43;;;1.42;;
31310;SDS011;17937;51.508;7.534;2022-10-22T15:24:46;5.97;;;1.38;;
31310;SDS011;17937;51.508;7.534;2022-10-22T15:27:14;2.00;;;0.88;;
31310;SDS011;17937;51.508;7.534;2022-10-22T15:29:40;7.95;;;1.38;;
31310;SDS011;17937;51.508;7.534;2022-10-22T15:32:06;4.35;;;1.40;;
31310;SDS011;17937;51.508;7.534;2022-10-22T15:34:37;4.00;;;1.35;;
31310;SDS011;17937;51.508;7.534;2022-10-22T15:37:04;6.63;;;1.60;;
31310;SDS011;17937;51.508;7.534;2022-10-22T15:39:31;8.05;;;1.60;;
31310;SDS011;17937;51.508;7.534;2022-10-22T15:41:56;4.80;;;1.70;;
31310;SDS011;17937;51.508;7.534;2022-10-22T15:44:23;8.75;;;1.30;;
31310;SDS011;17937;51.508;7.534;2022-10-22T15:46:51;8.02;;;1.67;;
31310;SDS011;17937;51.508;7.534;2022-10-22T15:49:20;6.25;;;1.75;;
31310;SDS011;17937;51.508;7.534;2022-10-22T15:51:47;6.68;;;1.80;;
31310;SDS011;17937;51.508;7.534;2022-10-22T15:54:14;10.60;;;1.70;;
31310;SDS011;17937;51.508;7.534;2022-10-22T15:56:44;8.15;;;1.40;;
31310;SDS011;17937;51.508;7.534;2022-10-22T15:59:11;4.70;;;1.38;;
31310;SDS011;17937;51.508;7.534;2022-10-22T16:01:38;3.70;;;1.48;;
31310;SDS011;17937;51.508;7.534;2022-10-22T16:04:04;8.50;;;2.10;;
31310;SDS011;17937;51.508;7.534;2022-10-22T16:06:32;5.60;;;1.70;;
31310;SDS011;17937;51.508;7.534;2022-10-22T16:09:07;4.88;;;2.03;;
31310;SDS011;17937;51.508;7.534;2022-10-22T16:11:35;8.63;;;1.80;;
31310;SDS011;17937;51.508;7.534;2022-10-22T16:14:01;7.80;;;2.00;;
31310;SDS011;17937;51.508;7.534;2022-10-22T16:16:29;8.13;;;2.45;;
31310;SDS011;17937;51.508;7.534;2022-10-22T16:18:56;8.18;;;2.35;;
31310;SDS011;17937;51.508;7.534;2022-10-22T16:21:22;7.20;;;2.47;;
31310;SDS011;17937;51.508;7.534;2022-10-22T16:23:48;9.82;;;3.50;;
31310;SDS011;17937;51.508;7.534;2022-10-22T16:26:14;7.65;;;3.05;;
31310;SDS011;17937;51.508;7.534;2022-10-22T16:28:40;19.98;;;17.38;;
31310;SDS011;17937;51.508;7.534;2022-10-22T16:31:08;17.73;;;11.85;;
31310;SDS011;17937;51.508;7.534;2022-10-22T16:33:35;6.88;;;3.85;;
31310;SDS011;17937;51.508;7.534;2022-10-22T16:36:03;10.45;;;3.42;;
31310;SDS011;17937;51.508;7.534;2022-10-22T16:38:29;12.90;;;3.45;;
31310;SDS011;17937;51.508;7.534;2022-10-22T16:41:04;8.23;;;3.45;;
31310;SDS011;17937;51.508;7.534;2022-10-22T16:43:37;9.52;;;3.75;;